Langebaanweg, South Africa
Current Conditions -  °F | °C
As of 9:00 AM on Monday 22 Dec 2014 (Local Time) from FACT Reporting Station
Few Clouds Few Clouds  
Wind Chill: 72°   Ceiling: Unl
Heat Index: 72°   Visibility: 6mi
Dew Point: 54°   Wind: 7mph
Humidity: 53%   Direction: NA
Pressure: 30.03"   Gusts: NA
Location:  32.97°S, 18.15°E
Report Text: FACT 220700Z VRB06KT 9999 FEW030 22/12 Q1017 NOSIG
Loading
Personal Weather Stations






























Interactive Weather Map New forecast layout! Learn more

10-Day Weather Forecast

Advertisements
Track Severe Weather on mobile